Time;durP1;ratioP1;P1;durP2;ratioP2;P2;SDS_P1;SDS_P2;PMS_P1;PMS_P2;Temp;Humidity;BMP_temperature;BMP_pressure;BME280_temperature;BME280_humidity;BME280_pressure;Samples;Min_cycle;Max_cycle;Signal;HPM_P1;HPM_P2
2023/11/01 00:04:16;;;;;;;4.55;0.52;;;;;;;13.55;73.40;99597.56;10400190;28;20053;-72
2023/11/01 00:09:17;;;;;;;1.40;0.40;;;;;;;13.51;73.51;99592.78;10421995;28;20077;-72
2023/11/01 00:14:19;;;;;;;3.80;0.40;;;;;;;13.53;73.38;99579.91;10416719;28;20056;-71
2023/11/01 00:19:21;;;;;;;2.42;0.40;;;;;;;13.52;73.42;99580.94;10406166;28;20045;-72
2023/11/01 00:24:22;;;;;;;3.42;0.40;;;;;;;13.51;73.75;99576.56;10402812;28;20041;-72
2023/11/01 00:29:24;;;;;;;2.30;0.40;;;;;;;13.52;73.72;99583.66;10397083;28;20045;-71
2023/11/01 00:34:25;;;;;;;2.63;0.73;;;;;;;13.52;73.83;99584.47;10420974;28;20076;-72
2023/11/01 00:39:27;;;;;;;1.00;0.30;;;;;;;13.56;73.93;99592.97;10405625;28;20484;-72
2023/11/01 00:44:28;;;;;;;1.58;0.40;;;;;;;13.60;73.83;99586.09;10408996;28;20056;-72
2023/11/01 00:49:30;;;;;;;3.83;0.50;;;;;;;13.62;73.97;99587.53;10414894;28;20051;-70
2023/11/01 00:54:31;;;;;;;3.65;0.50;;;;;;;13.50;74.36;99586.56;10442340;28;20037;-69
2023/11/01 00:59:34;;;;;;;3.55;0.50;;;;;;;13.37;74.65;99583.91;10460038;23;20084;-81
2023/11/01 01:04:36;;;;;;;3.85;0.45;;;;;;;13.23;75.18;99574.97;10373982;28;20040;-82
2023/11/01 01:09:37;;;;;;;4.45;0.50;;;;;;;13.16;75.46;99569.63;10383654;28;20085;-82
2023/11/01 01:14:39;;;;;;;6.03;0.82;;;;;;;13.17;75.29;99571.28;10374437;28;20604;-82
2023/11/01 01:19:41;;;;;;;3.50;0.90;;;;;;;13.06;75.67;99578.16;10406506;28;20107;-81
2023/11/01 01:24:42;;;;;;;2.80;1.20;;;;;;;13.02;76.26;99565.31;10434595;28;20069;-80
2023/11/01 01:29:45;;;;;;;3.15;0.82;;;;;;;12.93;76.46;99555.78;10422603;28;20054;-80
2023/11/01 01:35:01;;;;;;;3.70;0.90;;;;;;;12.86;77.16;99543.13;10404523;28;20037;-80
2023/11/01 01:40:03;;;;;;;4.90;0.85;;;;;;;12.83;77.12;99543.53;10416897;28;20045;-81
2023/11/01 01:45:05;;;;;;;7.85;1.05;;;;;;;12.88;77.28;99535.66;10439118;28;20040;-80
2023/11/01 01:50:08;;;;;;;2.17;0.52;;;;;;;12.88;77.23;99540.22;10425569;28;20097;-79
2023/11/01 01:55:10;;;;;;;7.45;0.63;;;;;;;13.03;76.88;99537.28;10414218;28;20038;-80
2023/11/01 02:00:14;;;;;;;3.28;1.30;;;;;;;12.99;77.13;99526.06;10437212;28;20124;-80
2023/11/01 02:05:23;;;;;;;2.00;0.60;;;;;;;12.99;77.43;99522.56;10418552;28;20034;-80
2023/11/01 02:10:25;;;;;;;3.75;0.70;;;;;;;13.01;77.07;99518.63;10423261;28;20109;-80
2023/11/01 02:15:26;;;;;;;6.55;0.90;;;;;;;12.97;77.46;99525.44;10426417;28;20049;-81
2023/11/01 02:20:30;;;;;;;2.42;0.60;;;;;;;12.89;78.40;99515.75;10436828;28;20184;-80
2023/11/01 02:25:35;;;;;;;5.18;0.80;;;;;;;12.85;77.83;99514.50;10413185;28;20041;-81
2023/11/01 02:30:40;;;;;;;4.45;0.60;;;;;;;12.86;78.13;99504.56;10426830;28;20037;-81
2023/11/01 02:35:42;;;;;;;3.40;0.65;;;;;;;12.83;78.21;99503.09;10415291;28;20068;-81
2023/11/01 02:40:44;;;;;;;4.35;0.82;;;;;;;12.83;78.16;99489.59;10424708;28;20044;-81
2023/11/01 02:45:46;;;;;;;2.40;0.68;;;;;;;12.76;78.48;99496.91;10406831;28;20116;-81
2023/11/01 02:50:50;;;;;;;4.15;0.60;;;;;;;12.68;78.68;99484.47;10423166;28;20021;-81
2023/11/01 02:55:52;;;;;;;3.00;1.13;;;;;;;12.75;78.95;99487.13;10412287;28;20022;-82
2023/11/01 03:00:55;;;;;;;3.28;0.65;;;;;;;12.81;78.94;99478.19;10435892;28;20033;-81
2023/11/01 03:05:57;;;;;;;5.57;0.80;;;;;;;12.80;78.73;99483.81;10416225;28;20048;-81
2023/11/01 03:10:59;;;;;;;7.63;1.00;;;;;;;12.80;79.14;99473.03;10422225;28;20041;-80
2023/11/01 03:16:00;;;;;;;1.92;1.23;;;;;;;12.82;79.12;99470.94;10415535;28;20099;-80
2023/11/01 03:21:03;;;;;;;8.40;0.93;;;;;;;12.84;79.08;99464.28;10404143;28;20045;-81
2023/11/01 03:26:09;;;;;;;2.87;1.20;;;;;;;12.87;78.99;99460.34;10443988;28;20045;-80
2023/11/01 03:31:12;;;;;;;3.90;0.65;;;;;;;12.98;78.95;99469.66;10437730;28;20049;-80
2023/11/01 03:36:14;;;;;;;3.72;0.68;;;;;;;12.99;79.09;99455.09;10420257;28;20076;-80
2023/11/01 03:41:16;;;;;;;3.55;0.60;;;;;;;13.00;79.31;99449.50;10416264;28;20113;-81
2023/11/01 03:46:17;;;;;;;5.13;0.63;;;;;;;13.00;79.35;99445.97;10406558;28;20042;-80
2023/11/01 03:51:19;;;;;;;2.92;1.08;;;;;;;12.97;79.34;99446.41;10417350;28;20045;-80
2023/11/01 03:56:22;;;;;;;2.65;0.60;;;;;;;12.99;79.55;99442.44;10398874;28;20504;-80
2023/11/01 04:01:23;;;;;;;2.55;0.50;;;;;;;13.09;79.17;99439.28;10399110;28;20044;-80
2023/11/01 04:06:25;;;;;;;3.58;0.68;;;;;;;13.11;79.38;99426.41;10395067;28;20540;-80
2023/11/01 04:11:26;;;;;;;3.83;0.85;;;;;;;13.12;79.41;99428.06;10414692;28;20045;-81
2023/11/01 04:16:28;;;;;;;5.28;0.77;;;;;;;13.05;79.61;99425.41;10387005;28;20037;-80
2023/11/01 04:21:31;;;;;;;3.85;0.50;;;;;;;13.00;79.84;99424.41;10386090;28;20045;-80
2023/11/01 04:26:33;;;;;;;4.93;0.70;;;;;;;13.12;79.62;99419.97;10377584;28;20054;-80
2023/11/01 04:31:35;;;;;;;5.55;0.77;;;;;;;13.07;79.90;99415.25;10380717;28;20042;-80
2023/11/01 04:36:37;;;;;;;3.47;0.73;;;;;;;13.06;80.12;99410.88;10380816;28;20057;-80
2023/11/01 04:41:39;;;;;;;1.80;0.52;;;;;;;13.08;79.91;99407.97;10372195;28;20038;-81
2023/11/01 04:46:40;;;;;;;1.60;0.43;;;;;;;13.12;79.91;99405.66;10389344;28;20038;-81
2023/11/01 04:51:43;;;;;;;4.78;0.60;;;;;;;13.10;79.80;99404.00;10388724;28;20041;-81
2023/11/01 04:56:45;;;;;;;5.40;0.93;;;;;;;13.13;80.03;99397.38;10384326;28;20046;-80
2023/11/01 05:01:48;;;;;;;7.47;0.90;;;;;;;13.15;79.75;99386.31;10403144;28;20121;-80
2023/11/01 05:06:51;;;;;;;4.55;0.90;;;;;;;13.10;80.28;99390.50;10395779;28;20049;-80
2023/11/01 05:11:52;;;;;;;5.18;0.60;;;;;;;13.18;80.09;99375.94;10391919;28;20049;-81
2023/11/01 05:16:55;;;;;;;7.93;1.60;;;;;;;13.17;80.08;99377.00;10405356;28;20038;-81
2023/11/01 05:21:56;;;;;;;2.58;0.68;;;;;;;13.10;80.20;99385.09;10386307;28;20025;-81
2023/11/01 05:26:59;;;;;;;7.72;0.82;;;;;;;13.14;79.91;99390.91;10390692;28;20049;-81
2023/11/01 05:32:01;;;;;;;2.90;0.90;;;;;;;13.11;79.96;99388.63;10388773;28;20539;-81
2023/11/01 05:37:03;;;;;;;3.55;0.80;;;;;;;13.15;79.91;99389.88;10388861;28;20042;-80
2023/11/01 05:42:05;;;;;;;5.10;1.50;;;;;;;13.09;80.01;99388.00;10407924;28;20100;-81
2023/11/01 05:47:07;;;;;;;3.92;0.65;;;;;;;13.06;80.13;99391.16;10387651;28;20049;-81
2023/11/01 05:52:09;;;;;;;5.43;0.77;;;;;;;13.10;80.30;99393.19;10394150;28;20053;-81
2023/11/01 05:57:13;;;;;;;5.95;1.00;;;;;;;13.16;79.89;99398.78;10390234;28;20088;-80
2023/11/01 06:02:17;;;;;;;3.55;1.13;;;;;;;13.19;79.84;99401.88;10384727;28;20061;-82
2023/11/01 06:07:19;;;;;;;3.22;0.70;;;;;;;13.25;79.63;99389.38;10404923;28;20042;-82
2023/11/01 06:17:25;;;;;;;4.13;0.68;;;;;;;13.39;79.28;99374.81;10369665;28;20831;-65
2023/11/01 06:22:28;;;;;;;5.30;0.80;;;;;;;13.44;79.20;99384.94;10378876;28;20049;-68
2023/11/01 06:27:29;;;;;;;4.75;0.73;;;;;;;13.44;79.52;99380.34;10370091;28;20041;-65
2023/11/01 06:32:35;;;;;;;5.63;0.70;;;;;;;13.45;79.46;99368.53;10382967;28;20591;-69
2023/11/01 06:37:37;;;;;;;7.05;1.08;;;;;;;13.56;79.17;99368.84;10395326;28;20125;-67
2023/11/01 06:42:38;;;;;;;3.58;0.95;;;;;;;13.59;79.05;99371.94;10411687;28;20033;-68
2023/11/01 06:47:40;;;;;;;4.43;0.88;;;;;;;13.65;78.75;99372.94;10431990;28;20048;-69
2023/11/01 06:52:44;;;;;;;2.78;0.95;;;;;;;13.71;78.57;99373.94;10423825;28;20047;-69
2023/11/01 06:57:46;;;;;;;7.72;0.88;;;;;;;13.65;78.92;99379.16;10421907;28;20143;-67
2023/11/01 07:02:47;;;;;;;7.10;0.60;;;;;;;13.61;78.86;99382.53;10429718;28;20597;-68
2023/11/01 07:07:49;;;;;;;3.45;0.60;;;;;;;13.72;78.93;99378.28;10429773;28;20073;-68
2023/11/01 07:12:51;;;;;;;2.40;0.40;;;;;;;13.78;78.79;99380.09;10410516;28;20055;-67
2023/11/01 07:17:52;;;;;;;5.38;0.77;;;;;;;13.79;78.78;99387.16;10433439;28;20068;-68
2023/11/01 07:22:54;;;;;;;5.38;0.73;;;;;;;13.75;78.61;99383.25;10434859;28;20041;-68
2023/11/01 07:27:56;;;;;;;6.32;0.50;;;;;;;13.69;78.83;99383.06;10401724;28;20038;-68
2023/11/01 07:32:57;;;;;;;9.55;0.50;;;;;;;13.69;78.88;99376.84;10417563;28;20124;-68
2023/11/01 07:37:59;;;;;;;3.92;0.80;;;;;;;13.64;78.93;99388.28;10414030;28;20048;-68
2023/11/01 07:43:00;;;;;;;5.40;0.50;;;;;;;13.66;78.84;99379.97;10421960;28;20037;-68
2023/11/01 07:48:02;;;;;;;3.65;0.70;;;;;;;13.72;78.60;99389.09;10423861;28;20091;-69
2023/11/01 07:53:04;;;;;;;3.60;0.50;;;;;;;13.83;78.52;99375.69;10432678;28;20133;-68
2023/11/01 07:58:06;;;;;;;9.90;1.48;;;;;;;13.88;78.36;99391.22;10438478;28;20056;-69
2023/11/01 08:03:07;;;;;;;1.85;0.55;;;;;;;14.01;78.14;99380.31;10426494;28;20048;-67
2023/11/01 08:08:09;;;;;;;2.80;1.30;;;;;;;14.11;77.76;99376.28;10410010;28;20073;-67
2023/11/01 08:13:11;;;;;;;5.03;0.77;;;;;;;14.17;77.73;99370.78;10430137;28;20681;-69
2023/11/01 08:18:13;;;;;;;9.02;0.90;;;;;;;14.28;77.27;99372.75;10400700;28;20526;-68
2023/11/01 08:23:14;;;;;;;6.82;0.73;;;;;;;14.24;77.30;99363.44;10411847;28;20400;-68
2023/11/01 08:28:18;;;;;;;4.57;1.10;;;;;;;14.26;77.30;99358.63;10420699;28;20037;-68
2023/11/01 08:33:19;;;;;;;7.50;0.60;;;;;;;14.38;76.72;99357.91;10403938;28;20488;-68
2023/11/01 08:38:21;;;;;;;6.43;1.38;;;;;;;14.35;76.70;99361.03;10423349;28;20068;-68
2023/11/01 08:43:23;;;;;;;2.33;0.73;;;;;;;14.53;76.29;99365.63;10398971;28;20053;-67
2023/11/01 08:48:25;;;;;;;2.83;0.38;;;;;;;14.64;76.12;99359.50;10426444;28;20049;-67
2023/11/01 08:53:26;;;;;;;8.70;1.83;;;;;;;14.94;75.60;99347.88;10418272;28;20049;-67
2023/11/01 08:58:31;;;;;;;5.78;1.23;;;;;;;15.04;75.58;99348.13;10431958;28;20049;-67
2023/11/01 09:03:33;;;;;;;3.22;0.40;;;;;;;15.22;75.34;99347.25;10411781;28;20049;-67
2023/11/01 09:08:35;;;;;;;2.20;0.30;;;;;;;15.33;74.94;99353.75;10412950;28;20052;-67
2023/11/01 09:13:36;;;;;;;7.40;0.50;;;;;;;15.38;74.71;99353.88;10419446;28;20450;-66
2023/11/01 09:18:38;;;;;;;5.22;0.60;;;;;;;15.56;73.86;99350.25;10429461;28;20460;-66
2023/11/01 09:23:39;;;;;;;5.32;0.40;;;;;;;15.63;73.80;99359.94;10421748;28;20053;-65
2023/11/01 09:28:41;;;;;;;4.32;0.43;;;;;;;15.79;73.10;99361.16;10417027;28;20048;-66
2023/11/01 09:33:48;;;;;;;6.25;0.50;;;;;;;15.83;72.78;99354.19;10422789;28;20056;-66
2023/11/01 09:38:51;;;;;;;8.57;0.70;;;;;;;15.87;72.21;99357.25;10421307;28;20064;-66
2023/11/01 09:44:01;;;;;;;5.78;0.30;;;;;;;15.95;71.89;99362.34;10419277;28;20045;-66
2023/11/01 09:49:04;;;;;;;4.75;0.30;;;;;;;15.97;71.26;99356.69;10432364;28;20155;-65
2023/11/01 09:54:06;;;;;;;5.47;0.65;;;;;;;16.06;70.81;99358.00;10420092;28;20056;-66
2023/11/01 09:59:09;;;;;;;4.25;0.25;;;;;;;16.10;70.34;99361.06;10429998;28;20049;-66
2023/11/01 10:04:10;;;;;;;6.03;0.93;;;;;;;16.27;70.31;99364.66;10418224;28;20053;-66
2023/11/01 10:09:13;;;;;;;1.35;0.40;;;;;;;16.27;69.85;99356.53;10433662;28;20133;-66
2023/11/01 10:14:30;;;;;;;5.38;0.40;;;;;;;16.45;69.44;99352.88;10427365;28;20127;-67
2023/11/01 10:19:32;;;;;;;5.93;0.50;;;;;;;16.70;69.06;99344.41;10428266;28;20045;-66
2023/11/01 10:24:33;;;;;;;2.25;0.50;;;;;;;16.68;68.45;99345.72;10429160;28;20052;-67
2023/11/01 10:29:44;;;;;;;2.75;0.30;;;;;;;16.75;68.25;99330.94;10425895;28;20072;-66
2023/11/01 10:34:46;;;;;;;4.97;0.45;;;;;;;16.71;68.00;99334.41;10422002;28;20134;-66
2023/11/01 10:39:48;;;;;;;3.22;0.50;;;;;;;16.66;67.90;99333.22;10425627;28;20056;-66
2023/11/01 10:44:50;;;;;;;3.85;0.68;;;;;;;16.73;67.64;99330.38;10426169;28;20196;-66
2023/11/01 10:49:53;;;;;;;1.50;0.40;;;;;;;16.71;67.35;99313.50;10407225;28;20049;-66
2023/11/01 10:54:56;;;;;;;4.43;0.50;;;;;;;16.72;67.31;99304.28;10434542;28;20036;-67
2023/11/01 11:00:21;;;;;;;2.65;0.55;;;;;;;16.90;66.70;99292.44;10410115;28;20056;-67
2023/11/01 11:05:26;;;;;;;3.58;0.35;;;;;;;16.93;66.36;99280.28;10425681;28;20049;-67
2023/11/01 11:10:33;;;;;;;2.53;0.30;;;;;;;17.07;66.19;99261.78;10430315;28;20107;-66
2023/11/01 11:15:47;;;;;;;4.32;0.30;;;;;;;17.22;66.01;99253.91;10426649;28;20099;-67
2023/11/01 11:20:55;;;;;;;1.75;0.60;;;;;;;17.30;66.04;99247.22;10432324;28;20064;-67
2023/11/01 11:25:58;;;;;;;5.47;0.38;;;;;;;17.32;65.79;99245.06;10421740;28;20098;-66
2023/11/01 11:31:05;;;;;;;6.82;0.45;;;;;;;17.37;65.13;99240.53;10415317;28;20041;-60
2023/11/01 11:36:07;;;;;;;;;;;;;;;17.42;65.91;99229.78;10396038;28;20068;-60
2023/11/01 11:41:20;;;;;;;3.17;0.30;;;;;;;17.53;64.40;99225.28;10419140;28;19925;-60
2023/11/01 11:46:38;;;;;;;1.55;0.38;;;;;;;17.49;63.68;99226.88;10429592;28;20535;-62
2023/11/01 11:51:52;;;;;;;1.10;0.50;;;;;;;17.43;62.94;99225.16;10435639;28;20557;-59
2023/11/01 11:57:08;;;;;;;2.45;0.30;;;;;;;17.38;62.56;99208.78;10425901;28;20061;-62
2023/11/01 12:02:12;;;;;;;1.00;0.20;;;;;;;17.54;62.01;99193.53;10435874;28;20127;-61
2023/11/01 12:07:18;;;;;;;3.75;0.22;;;;;;;17.73;61.65;99177.72;10419352;28;20045;-65
2023/11/01 12:12:20;;;;;;;;;;;;;;;17.71;62.58;99179.88;10436906;28;20526;-65
2023/11/01 12:17:22;;;;;;;0.90;0.20;;;;;;;17.68;61.68;99169.53;10435055;28;19927;-64
2023/11/01 12:22:24;;;;;;;1.17;0.20;;;;;;;17.84;61.17;99150.47;10423095;28;20077;-66
2023/11/01 12:27:31;;;;;;;1.65;0.20;;;;;;;17.97;60.32;99151.13;10412673;28;20045;-64
2023/11/01 12:32:38;;;;;;;1.90;0.10;;;;;;;18.06;60.03;99144.19;10401585;28;20078;-64
2023/11/01 12:37:41;;;;;;;0.90;0.20;;;;;;;18.19;59.24;99126.66;10432876;28;20144;-64
2023/11/01 12:42:51;;;;;;;1.55;0.20;;;;;;;18.29;58.35;99117.78;10425327;28;20131;-66
2023/11/01 12:47:53;;;;;;;5.13;1.25;;;;;;;18.19;58.13;99104.91;10433353;28;20043;-66
2023/11/01 12:52:55;;;;;;;0.40;0.10;;;;;;;18.14;57.68;99107.56;10423853;28;20455;-66
2023/11/01 12:57:59;;;;;;;1.30;0.10;;;;;;;18.15;57.36;99098.34;10406525;28;20045;-61
2023/11/01 13:03:01;;;;;;;1.15;0.20;;;;;;;18.11;56.98;99094.44;10409410;28;20072;-61
2023/11/01 13:08:03;;;;;;;1.55;0.20;;;;;;;18.15;56.42;99084.72;10405559;28;20053;-60
2023/11/01 13:13:07;;;;;;;0.77;0.30;;;;;;;18.11;55.96;99087.13;10406099;28;20050;-61
2023/11/01 13:18:09;;;;;;;1.02;0.20;;;;;;;18.01;55.98;99081.59;10427365;28;20045;-59
2023/11/01 13:23:10;;;;;;;0.82;0.20;;;;;;;17.87;55.95;99083.06;10422560;28;20045;-65
2023/11/01 13:28:12;;;;;;;2.17;0.80;;;;;;;17.70;55.85;99075.78;10430243;28;20057;-64
2023/11/01 13:33:13;;;;;;;1.55;0.10;;;;;;;17.64;55.91;99076.81;10428174;28;20049;-64
2023/11/01 13:38:15;;;;;;;2.15;0.20;;;;;;;17.60;55.99;99076.47;10413812;28;20083;-63
2023/11/01 13:43:16;;;;;;;2.85;0.10;;;;;;;17.70;56.02;99075.78;10415087;28;20127;-63
2023/11/01 13:48:18;;;;;;;2.63;0.30;;;;;;;17.58;56.21;99075.91;10420330;28;20053;-63
2023/11/01 13:53:20;;;;;;;3.30;0.40;;;;;;;17.43;56.30;99060.25;10419247;28;20052;-63
2023/11/01 13:58:26;;;;;;;1.00;0.20;;;;;;;17.42;56.43;99055.09;10414550;28;20068;-65
2023/11/01 14:03:27;;;;;;;2.95;0.20;;;;;;;17.56;56.23;99039.22;10424870;28;20399;-66
2023/11/01 14:08:29;;;;;;;3.08;0.20;;;;;;;17.60;56.36;99040.34;10407302;28;20408;-63
2023/11/01 14:13:31;;;;;;;2.10;0.30;;;;;;;17.66;56.42;99033.88;10414996;28;20045;-61
2023/11/01 14:18:32;;;;;;;1.77;0.20;;;;;;;17.67;56.73;99031.97;10410590;28;20107;-63
2023/11/01 14:23:34;;;;;;;2.72;0.30;;;;;;;17.67;56.87;99021.94;10441382;28;20044;-62
2023/11/01 14:28:35;;;;;;;1.45;0.20;;;;;;;17.56;56.84;99015.56;10429244;28;20472;-64
2023/11/01 14:33:38;;;;;;;5.72;0.20;;;;;;;17.45;57.00;99013.81;10438283;28;20041;-64
2023/11/01 14:38:40;;;;;;;0.45;0.10;;;;;;;17.47;56.97;99006.22;10418485;28;20129;-64
2023/11/01 14:43:42;;;;;;;2.83;0.32;;;;;;;17.42;57.05;99004.28;10420752;28;20693;-64
2023/11/01 14:48:43;;;;;;;1.20;0.20;;;;;;;17.32;56.88;98998.72;10407903;28;20263;-64
2023/11/01 14:53:45;;;;;;;2.17;0.20;;;;;;;17.34;56.87;98991.16;10423413;28;20065;-63
2023/11/01 14:58:48;;;;;;;2.22;0.30;;;;;;;17.26;56.79;98983.44;10438794;28;20118;-64
2023/11/01 15:03:50;;;;;;;2.03;0.20;;;;;;;17.27;57.11;98978.84;10437336;28;20127;-65
2023/11/01 15:08:51;;;;;;;1.75;0.20;;;;;;;17.36;56.86;98974.59;10420347;28;20099;-64
2023/11/01 15:13:53;;;;;;;1.00;0.28;;;;;;;17.36;57.13;98980.03;10425926;28;20072;-65
2023/11/01 15:18:55;;;;;;;1.38;0.40;;;;;;;17.25;57.60;98966.31;10431026;28;20047;-65
2023/11/01 15:23:56;;;;;;;3.13;0.50;;;;;;;17.17;57.73;98964.06;10415241;28;20400;-66
2023/11/01 15:28:58;;;;;;;1.67;0.28;;;;;;;17.07;57.79;98958.50;10427982;28;20041;-65
2023/11/01 15:33:59;;;;;;;3.13;0.30;;;;;;;17.05;57.74;98960.66;10419002;28;20041;-65
2023/11/01 15:39:01;;;;;;;1.48;0.20;;;;;;;16.96;57.56;98960.28;10427733;28;20048;-64
2023/11/01 15:44:03;;;;;;;1.77;0.22;;;;;;;16.85;58.02;98953.88;10419129;28;20041;-65
2023/11/01 15:49:05;;;;;;;3.53;0.40;;;;;;;16.77;58.25;98946.16;10421749;28;20045;-66
2023/11/01 15:54:07;;;;;;;1.17;0.20;;;;;;;16.73;58.15;98946.91;10414451;28;20056;-64
2023/11/01 15:59:08;;;;;;;5.15;0.30;;;;;;;16.70;58.16;98952.84;10409819;28;20102;-64
2023/11/01 16:04:10;;;;;;;3.83;0.20;;;;;;;16.62;58.24;98954.09;10419986;28;20672;-64
2023/11/01 16:09:13;;;;;;;4.13;0.90;;;;;;;16.59;58.18;98946.47;10417954;28;20076;-73
2023/11/01 16:14:15;;;;;;;0.82;0.20;;;;;;;16.52;58.59;98949.34;10420973;28;20075;-71
2023/11/01 16:19:17;;;;;;;3.40;0.35;;;;;;;16.51;58.47;98949.56;10426438;28;20072;-69
2023/11/01 16:24:19;;;;;;;0.45;0.20;;;;;;;16.51;58.64;98945.00;10415263;28;20045;-72
2023/11/01 16:29:21;;;;;;;2.72;0.25;;;;;;;16.48;58.29;98945.47;10411771;28;20041;-70
2023/11/01 16:34:22;;;;;;;2.67;0.20;;;;;;;16.52;58.53;98952.03;10413071;28;20163;-69
2023/11/01 16:39:24;;;;;;;3.15;0.30;;;;;;;16.53;58.53;98934.72;10425489;28;20075;-69
2023/11/01 16:44:26;;;;;;;1.77;0.32;;;;;;;16.48;58.90;98934.63;10433568;28;20056;-69
2023/11/01 16:49:27;;;;;;;4.07;0.73;;;;;;;16.42;58.87;98932.91;10419951;28;20752;-68
2023/11/01 16:54:28;;;;;;;0.82;0.10;;;;;;;16.41;58.77;98940.25;10439833;28;20051;-69
2023/11/01 16:59:30;;;;;;;2.65;0.30;;;;;;;16.40;58.92;98935.88;10430140;28;20532;-68
2023/11/01 17:04:32;;;;;;;2.72;1.10;;;;;;;16.38;59.39;98921.75;10433993;28;20040;-68
2023/11/01 17:09:34;;;;;;;2.60;0.32;;;;;;;16.30;59.43;98922.16;10425369;28;20056;-69
2023/11/01 17:14:36;;;;;;;1.20;0.20;;;;;;;16.28;59.57;98920.78;10419839;28;20395;-70
2023/11/01 17:19:37;;;;;;;1.65;0.30;;;;;;;16.25;59.79;98913.94;10421330;28;20492;-70
2023/11/01 17:24:39;;;;;;;2.95;0.22;;;;;;;16.25;59.57;98911.22;10436560;28;20092;-69
2023/11/01 17:29:40;;;;;;;1.77;0.30;;;;;;;16.25;59.51;98911.22;10408424;28;20049;-68
2023/11/01 17:34:42;;;;;;;1.83;0.40;;;;;;;16.27;59.48;98919.94;10417312;28;20443;-69
2023/11/01 17:39:45;;;;;;;1.50;0.20;;;;;;;16.30;59.36;98910.50;10436641;28;20127;-69
2023/11/01 17:44:47;;;;;;;1.10;0.30;;;;;;;16.38;59.24;98913.59;10420719;28;20041;-70
2023/11/01 17:49:51;;;;;;;3.75;0.60;;;;;;;16.37;59.02;98894.84;10431705;28;20049;-70
2023/11/01 17:54:53;;;;;;;0.82;0.20;;;;;;;16.40;58.80;98899.81;10419348;28;20052;-69
2023/11/01 17:59:55;;;;;;;2.28;0.43;;;;;;;16.38;58.96;98897.31;10431672;28;20058;-70
2023/11/01 18:04:59;;;;;;;1.27;0.30;;;;;;;16.40;58.94;98900.59;10421923;28;20147;-70
2023/11/01 18:10:00;;;;;;;1.27;0.30;;;;;;;16.40;58.65;98908.75;10411381;28;20041;-69
2023/11/01 18:15:05;;;;;;;1.50;0.30;;;;;;;16.38;59.04;98904.66;10441868;28;20130;-70
2023/11/01 18:20:09;;;;;;;1.40;0.35;;;;;;;16.35;59.06;98907.84;10423125;28;20586;-68
2023/11/01 18:25:29;;;;;;;4.30;0.60;;;;;;;16.20;59.76;98903.03;10423275;28;20045;-69
2023/11/01 18:30:31;;;;;;;1.55;0.30;;;;;;;16.07;59.83;98896.06;10417704;28;20065;-69
2023/11/01 18:35:35;;;;;;;1.17;0.40;;;;;;;16.14;59.59;98882.34;10429014;28;20080;-69
2023/11/01 18:40:38;;;;;;;0.60;0.20;;;;;;;16.08;59.80;98892.28;10423897;28;20052;-68
2023/11/01 18:45:40;;;;;;;1.63;0.30;;;;;;;16.02;59.85;98888.69;10412867;28;20144;-68
2023/11/01 18:50:41;;;;;;;2.58;0.10;;;;;;;15.97;59.26;98880.47;10409719;28;20497;-69
2023/11/01 18:55:43;;;;;;;0.30;0.10;;;;;;;15.88;58.66;98897.38;10412293;28;20055;-71
2023/11/01 19:00:44;;;;;;;1.98;0.10;;;;;;;15.82;58.82;98893.78;10428239;28;20049;-71
2023/11/01 19:05:47;;;;;;;0.57;0.10;;;;;;;15.72;59.33;98891.69;10406939;28;20056;-71
2023/11/01 19:10:50;;;;;;;0.30;0.10;;;;;;;15.67;59.35;98892.41;10431944;28;20045;-70
2023/11/01 19:16:06;;;;;;;0.30;0.10;;;;;;;15.59;59.13;98887.41;10394935;28;20042;-68
2023/11/01 19:21:08;;;;;;;1.27;0.10;;;;;;;15.48;59.07;98882.88;10391703;28;20065;-69
2023/11/01 19:26:10;;;;;;;0.45;0.22;;;;;;;15.38;59.46;98885.41;10421469;28;20053;-68
2023/11/01 19:31:12;;;;;;;1.55;0.10;;;;;;;15.35;59.62;98888.63;10396030;28;20167;-68
2023/11/01 19:36:14;;;;;;;1.23;0.10;;;;;;;15.25;59.86;98911.72;10396209;28;20041;-68
2023/11/01 19:41:17;;;;;;;0.52;0.10;;;;;;;15.21;60.21;98901.63;10410489;28;20111;-69
2023/11/01 19:46:18;;;;;;;0.95;0.20;;;;;;;15.18;60.19;98900.22;10425469;28;20127;-67
2023/11/01 19:51:20;;;;;;;1.52;0.20;;;;;;;15.11;60.62;98906.84;10413252;28;20051;-67
2023/11/01 19:56:25;;;;;;;1.17;0.38;;;;;;;15.10;60.53;98897.09;10418308;28;20052;-68
2023/11/01 20:01:29;;;;;;;0.82;0.20;;;;;;;15.03;60.36;98878.28;10410945;28;20053;-67
2023/11/01 20:06:31;;;;;;;1.85;0.10;;;;;;;14.97;60.44;98881.94;10425803;28;20094;-68
2023/11/01 20:11:32;;;;;;;3.58;0.52;;;;;;;14.86;60.99;98879.03;10421903;28;20144;-67
2023/11/01 20:16:34;;;;;;;0.40;0.20;;;;;;;14.80;60.87;98874.59;10422574;28;20052;-69
2023/11/01 20:21:35;;;;;;;1.17;0.65;;;;;;;14.73;61.12;98879.34;10412436;28;20084;-69
2023/11/01 20:26:37;;;;;;;0.47;0.20;;;;;;;14.68;60.88;98873.81;10418119;28;20107;-68
2023/11/01 20:31:38;;;;;;;0.73;0.47;;;;;;;14.55;61.55;98879.44;10424523;28;20767;-68
2023/11/01 20:36:41;;;;;;;0.40;0.10;;;;;;;14.46;61.60;98887.13;10442211;28;20935;-70
2023/11/01 20:41:44;;;;;;;0.77;0.10;;;;;;;14.40;61.60;98864.56;10415634;28;20056;-68
2023/11/01 20:46:45;;;;;;;0.35;0.20;;;;;;;14.32;61.89;98869.50;10425701;28;20052;-70
2023/11/01 20:51:47;;;;;;;0.10;0.00;;;;;;;14.27;62.08;98868.31;10433831;28;20068;-69
2023/11/01 20:56:48;;;;;;;1.63;0.20;;;;;;;14.25;62.07;98881.25;10425615;28;20102;-71
2023/11/01 21:01:50;;;;;;;0.73;0.20;;;;;;;14.24;62.18;98868.00;10415136;28;20095;-68
2023/11/01 21:06:51;;;;;;;1.23;0.28;;;;;;;14.26;62.57;98860.47;10416867;28;20128;-68
2023/11/01 21:11:52;;;;;;;0.20;0.10;;;;;;;14.29;62.38;98849.16;10433282;28;20040;-67
2023/11/01 21:16:54;;;;;;;1.17;0.20;;;;;;;14.30;62.11;98840.00;10426270;28;20049;-68
2023/11/01 21:21:56;;;;;;;0.50;0.20;;;;;;;14.32;62.63;98831.66;10414904;28;20048;-67
2023/11/01 21:26:58;;;;;;;0.30;0.10;;;;;;;14.35;62.70;98829.28;10417289;28;21086;-68
2023/11/01 21:32:00;;;;;;;0.65;0.20;;;;;;;14.28;62.94;98807.81;10427958;28;20103;-70
2023/11/01 21:37:01;;;;;;;0.95;0.10;;;;;;;14.27;63.28;98806.16;10435199;28;20033;-70
2023/11/01 21:42:04;;;;;;;0.95;0.20;;;;;;;14.22;63.12;98794.44;10427145;28;20034;-69
2023/11/01 21:47:12;;;;;;;0.50;0.20;;;;;;;14.14;63.54;98792.06;10420243;28;20049;-67
2023/11/01 21:52:18;;;;;;;0.85;0.10;;;;;;;14.06;63.82;98786.00;10425390;28;20396;-67
2023/11/01 21:57:28;;;;;;;1.13;0.10;;;;;;;13.98;64.23;98780.97;10428365;28;20091;-68
2023/11/01 22:02:45;;;;;;;1.70;0.20;;;;;;;13.90;64.54;98767.78;10429788;28;20583;-70
2023/11/01 22:07:49;;;;;;;0.45;0.20;;;;;;;13.89;64.43;98771.56;10416151;28;20064;-68
2023/11/01 22:12:50;;;;;;;0.60;0.20;;;;;;;13.82;64.85;98773.56;10433938;28;20180;-68
2023/11/01 22:17:52;;;;;;;2.03;0.30;;;;;;;13.87;64.81;98762.88;10423335;28;20053;-68
2023/11/01 22:23:01;;;;;;;0.40;0.20;;;;;;;13.81;65.07;98761.94;10426423;28;20057;-69
2023/11/01 22:28:06;;;;;;;1.40;0.22;;;;;;;13.81;64.95;98740.34;10429582;28;20107;-69
2023/11/01 22:33:10;;;;;;;0.68;0.20;;;;;;;13.86;64.91;98732.34;10416079;28;20056;-68
2023/11/01 22:38:13;;;;;;;2.08;0.22;;;;;;;13.73;65.30;98738.00;10431192;28;20045;-68
2023/11/01 22:43:18;;;;;;;1.02;0.15;;;;;;;13.77;65.32;98714.84;10433215;28;20052;-69
2023/11/01 22:48:19;;;;;;;1.88;0.40;;;;;;;13.71;65.52;98715.00;10436563;28;20358;-69
2023/11/01 22:53:21;;;;;;;1.63;0.32;;;;;;;13.63;65.61;98699.97;10425861;28;20068;-69
2023/11/01 22:58:26;;;;;;;0.40;0.20;;;;;;;13.65;65.84;98697.84;10401156;28;20046;-67
2023/11/01 23:03:28;;;;;;;0.75;0.20;;;;;;;13.64;66.06;98697.00;10430431;28;20329;-66
2023/11/01 23:08:29;;;;;;;3.45;0.35;;;;;;;13.67;66.19;98680.34;10431333;28;20041;-67
2023/11/01 23:13:31;;;;;;;0.55;0.28;;;;;;;13.67;66.33;98669.56;10433534;28;20037;-67
2023/11/01 23:18:34;;;;;;;3.13;0.32;;;;;;;13.74;66.56;98650.50;10431058;28;20048;-67
2023/11/01 23:23:36;;;;;;;0.77;0.20;;;;;;;13.80;66.28;98632.53;10403296;28;20079;-67
2023/11/01 23:28:53;;;;;;;1.50;0.20;;;;;;;13.78;66.22;98616.56;10422045;28;20049;-67
2023/11/01 23:34:07;;;;;;;1.30;0.20;;;;;;;13.77;66.33;98606.84;10415843;28;20128;-68
2023/11/01 23:39:10;;;;;;;1.23;0.13;;;;;;;13.85;66.24;98589.44;10415072;28;20088;-67